createdAt,value
2017-06-10T00:00:25.812Z,24.24
2017-06-10T00:01:26.043Z,24.4
2017-06-10T00:02:25.549Z,24.37
2017-06-10T00:03:25.578Z,24.34
2017-06-10T00:04:25.923Z,24.32
2017-06-10T00:05:25.640Z,24.28
2017-06-10T00:06:25.922Z,24.25
2017-06-10T00:07:26.008Z,24.37
2017-06-10T00:08:26.027Z,24.27
2017-06-10T00:09:26.068Z,24.28
2017-06-10T00:10:26.087Z,24.22
2017-06-10T00:11:26.060Z,24.28
2017-06-10T00:12:26.145Z,24.25
2017-06-10T00:13:26.173Z,24.21
2017-06-10T00:14:26.200Z,24.27
2017-06-10T00:15:26.232Z,24.28
2017-06-10T00:16:26.148Z,24.31
2017-06-10T00:17:26.286Z,24.25
2017-06-10T00:18:26.311Z,24.22
2017-06-10T00:19:25.715Z,24.32
2017-06-10T00:20:26.056Z,24.25
2017-06-10T00:21:26.600Z,24.28
2017-06-10T00:22:26.421Z,24.27
2017-06-10T00:23:26.455Z,24.27
2017-06-10T00:24:26.173Z,24.34
2017-06-10T00:25:26.189Z,24.31
2017-06-10T00:26:26.777Z,24.28
2017-06-10T00:27:26.247Z,24.3
2017-06-10T00:28:26.304Z,24.27
2017-06-10T00:29:26.623Z,24.27
2017-06-10T00:30:26.650Z,24.2
2017-06-10T00:31:26.560Z,24.25
2017-06-10T00:32:26.693Z,24.25
2017-06-10T00:33:26.730Z,24.22
2017-06-10T00:34:26.764Z,24.2
2017-06-10T00:35:26.467Z,24.22
2017-06-10T00:36:27.074Z,24.18
2017-06-10T00:37:26.837Z,24.21
2017-06-10T00:38:26.561Z,24.21
2017-06-10T00:39:26.902Z,24.2
2017-06-10T00:40:26.613Z,24.22
2017-06-10T00:41:26.524Z,24.24
2017-06-10T00:42:26.979Z,24.21
2017-06-10T00:43:27.003Z,24.22
2017-06-10T00:44:26.723Z,24.18
2017-06-10T00:45:27.064Z,24.2
2017-06-10T00:46:27.291Z,24.16
2017-06-10T00:47:26.801Z,24.18
2017-06-10T00:48:26.838Z,24.16
2017-06-10T00:49:26.859Z,24.18
2017-06-10T00:50:27.203Z,24.16
2017-06-10T00:51:27.117Z,24.16
2017-06-10T00:52:26.942Z,24.2
2017-06-10T00:53:27.284Z,24.13
2017-06-10T00:54:27.001Z,24.18
2017-06-10T00:55:27.355Z,24.21
2017-06-10T00:56:27.565Z,24.15
2017-06-10T00:57:27.081Z,24.25
2017-06-10T00:58:27.110Z,24.08
2017-06-10T00:59:27.139Z,24.09
2017-06-10T01:00:27.483Z,24.09
2017-06-10T01:01:27.784Z,24.12
2017-06-10T01:02:27.221Z,24.1
2017-06-10T01:03:27.566Z,24.22
2017-06-10T01:04:27.599Z,24.13
2017-06-10T01:05:27.620Z,24.16
2017-06-10T01:06:27.591Z,24.16
2017-06-10T01:07:27.668Z,24.15
2017-06-10T01:08:27.701Z,24.09
2017-06-10T01:09:27.731Z,24.12
2017-06-10T01:10:27.755Z,24.16
2017-06-10T01:11:28.042Z,24.1
2017-06-10T01:12:27.496Z,24.08
2017-06-10T01:13:27.533Z,24.13
2017-06-10T01:14:27.558Z,24.12
2017-06-10T01:15:27.587Z,24.06
2017-06-10T01:16:28.124Z,24.09
2017-06-10T01:17:27.944Z,24.06
2017-06-10T01:18:27.978Z,24.12
2017-06-10T01:19:28.010Z,24.08
2017-06-10T01:20:27.719Z,24.08
2017-06-10T01:21:28.261Z,24.08
2017-06-10T01:22:28.081Z,24.1
2017-06-10T01:23:27.809Z,24.09
2017-06-10T01:24:28.139Z,24.1
2017-06-10T01:25:27.547Z,24.1
2017-06-10T01:26:27.884Z,24.09
2017-06-10T01:27:28.224Z,24.09
2017-06-10T01:28:28.256Z,24.02
2017-06-10T01:29:27.978Z,23.95
2017-06-10T01:30:27.999Z,24.03
2017-06-10T01:31:28.028Z,24.1
2017-06-10T01:32:28.044Z,23.97
2017-06-10T01:33:28.089Z,24
2017-06-10T01:34:28.105Z,23.97
2017-06-10T01:35:28.448Z,24.05
2017-06-10T01:36:28.480Z,24.09
2017-06-10T01:37:28.506Z,24
2017-06-10T01:38:28.535Z,24.05
2017-06-10T01:39:28.563Z,24.05
2017-06-10T01:40:28.591Z,24.03
2017-06-10T01:41:28.306Z,24.02
2017-06-10T01:42:28.330Z,24.03
2017-06-10T01:43:28.673Z,24.02
2017-06-10T01:44:28.703Z,24.03
2017-06-10T01:45:28.727Z,24
2017-06-10T01:46:28.131Z,24.03
2017-06-10T01:47:28.779Z,24
2017-06-10T01:48:28.822Z,24.03
2017-06-10T01:49:28.836Z,24.06
2017-06-10T01:50:28.863Z,23.98
2017-06-10T01:51:28.579Z,23.97
2017-06-10T01:52:28.921Z,24.02
2017-06-10T01:53:28.945Z,23.98
2017-06-10T01:54:28.979Z,23.95
2017-06-10T01:55:28.382Z,24
2017-06-10T01:56:29.037Z,24.05
2017-06-10T01:57:29.056Z,23.97
2017-06-10T01:58:28.776Z,23.94
2017-06-10T01:59:29.114Z,24
2017-06-10T02:00:28.830Z,23.97
2017-06-10T02:01:29.166Z,23.95
2017-06-10T02:02:29.193Z,23.95
2017-06-10T02:03:28.917Z,24
2017-06-10T02:04:29.245Z,23.97
2017-06-10T02:05:29.278Z,24
2017-06-10T02:06:29.312Z,23.98
2017-06-10T02:07:29.332Z,23.95
2017-06-10T02:08:29.356Z,23.93
2017-06-10T02:09:29.082Z,23.94
2017-06-10T02:10:29.096Z,23.95
2017-06-10T02:11:29.451Z,23.95
2017-06-10T02:12:29.467Z,23.91
2017-06-10T02:13:29.505Z,23.94
2017-06-10T02:14:29.521Z,23.94
2017-06-10T02:15:29.242Z,23.93
2017-06-10T02:16:29.272Z,23.9
2017-06-10T02:17:29.293Z,23.93
2017-06-10T02:18:29.636Z,23.95
2017-06-10T02:19:29.037Z,23.91
2017-06-10T02:20:29.693Z,23.95
2017-06-10T02:21:29.101Z,23.97
2017-06-10T02:22:29.742Z,23.94
2017-06-10T02:23:29.779Z,23.94
2017-06-10T02:24:29.490Z,24.03
2017-06-10T02:25:29.209Z,23.79
2017-06-10T02:26:29.857Z,23.93
2017-06-10T02:27:29.883Z,23.91
2017-06-10T02:28:29.924Z,23.87
2017-06-10T02:29:29.944Z,23.91
2017-06-10T02:30:29.661Z,23.83
2017-06-10T02:31:29.688Z,23.83
2017-06-10T02:32:29.706Z,23.85
2017-06-10T02:33:30.056Z,23.8
2017-06-10T02:34:29.791Z,23.79
2017-06-10T02:35:30.110Z,23.73
2017-06-10T02:36:30.138Z,23.79
2017-06-10T02:37:29.847Z,23.72
2017-06-10T02:38:30.192Z,23.69
2017-06-10T02:39:29.904Z,23.7
2017-06-10T02:40:29.937Z,23.72
2017-06-10T02:41:29.963Z,23.78
2017-06-10T02:42:30.294Z,23.75
2017-06-10T02:43:30.021Z,23.75
2017-06-10T02:44:30.040Z,23.73
2017-06-10T02:45:30.072Z,23.73
2017-06-10T02:46:30.414Z,23.76
2017-06-10T02:47:30.122Z,23.72
2017-06-10T02:48:30.468Z,23.78
2017-06-10T02:49:30.520Z,23.7
2017-06-10T02:50:30.521Z,23.75
2017-06-10T02:51:30.235Z,23.73
2017-06-10T02:52:30.515Z,23.68
2017-06-10T02:53:30.607Z,23.69
2017-06-10T02:54:30.637Z,23.69
2017-06-10T02:55:30.657Z,23.72
2017-06-10T02:56:30.683Z,23.69
2017-06-10T02:57:30.651Z,23.7
2017-06-10T02:58:30.112Z,23.66
2017-06-10T02:59:30.772Z,23.65
2017-06-10T03:00:30.790Z,23.55
2017-06-10T03:01:30.824Z,23.55
2017-06-10T03:02:30.791Z,23.61
2017-06-10T03:03:30.880Z,23.55
2017-06-10T03:04:30.931Z,23.61
2017-06-10T03:05:30.621Z,23.58
2017-06-10T03:06:30.641Z,23.55
2017-06-10T03:07:30.943Z,23.5
2017-06-10T03:08:31.018Z,23.54
2017-06-10T03:09:30.727Z,23.53
2017-06-10T03:10:31.073Z,23.51
2017-06-10T03:11:31.097Z,23.51
2017-06-10T03:12:31.063Z,23.48
2017-06-10T03:13:31.157Z,23.5
2017-06-10T03:14:31.183Z,23.46
2017-06-10T03:15:30.898Z,23.57
2017-06-10T03:16:31.234Z,23.53
2017-06-10T03:17:31.518Z,23.51
2017-06-10T03:18:31.292Z,23.5
2017-06-10T03:19:31.009Z,23.5
2017-06-10T03:20:31.380Z,23.42
2017-06-10T03:21:31.373Z,23.53
2017-06-10T03:22:31.335Z,23.47
2017-06-10T03:23:31.427Z,23.42
2017-06-10T03:24:31.144Z,23.47
2017-06-10T03:25:31.477Z,23.38
2017-06-10T03:26:31.541Z,23.51
2017-06-10T03:27:31.738Z,23.42
2017-06-10T03:28:31.555Z,23.46
2017-06-10T03:29:31.302Z,23.46
2017-06-10T03:30:31.621Z,23.5
2017-06-10T03:31:31.649Z,23.43
2017-06-10T03:32:31.925Z,23.5
2017-06-10T03:33:31.706Z,23.54
2017-06-10T03:34:31.729Z,23.53
2017-06-10T03:35:31.761Z,23.53
2017-06-10T03:36:31.781Z,23.55
2017-06-10T03:37:32.065Z,23.58
2017-06-10T03:38:31.835Z,23.57
2017-06-10T03:39:31.859Z,23.55
2017-06-10T03:40:31.898Z,23.61
2017-06-10T03:41:31.929Z,23.55
2017-06-10T03:42:32.194Z,23.58
2017-06-10T03:43:31.971Z,23.61
2017-06-10T03:44:32.005Z,23.55
2017-06-10T03:45:32.033Z,23.63
2017-06-10T03:46:32.057Z,23.54
2017-06-10T03:47:32.029Z,23.63
2017-06-10T03:48:32.102Z,23.7
2017-06-10T03:49:32.136Z,23.51
2017-06-10T03:50:31.864Z,23.55
2017-06-10T03:51:32.192Z,23.57
2017-06-10T03:52:32.469Z,23.55
2017-06-10T03:53:31.934Z,23.61
2017-06-10T03:54:32.275Z,23.61
2017-06-10T03:55:32.301Z,23.57
2017-06-10T03:56:32.017Z,23.61
2017-06-10T03:57:32.556Z,23.57
2017-06-10T03:58:32.379Z,23.65
2017-06-10T03:59:32.105Z,23.55
2017-06-10T04:00:32.443Z,23.63
2017-06-10T04:01:32.465Z,23.65
2017-06-10T04:02:32.745Z,23.63
2017-06-10T04:03:32.527Z,23.65
2017-06-10T04:04:32.552Z,23.6
2017-06-10T04:05:32.581Z,23.55
2017-06-10T04:06:32.605Z,23.68
2017-06-10T04:07:32.909Z,23.53
2017-06-10T04:08:32.339Z,23.58
2017-06-10T04:09:32.687Z,23.61
2017-06-10T04:10:32.717Z,23.53
2017-06-10T04:11:32.436Z,23.66
2017-06-10T04:12:32.966Z,23.66
2017-06-10T04:13:32.795Z,23.57
2017-06-10T04:14:32.823Z,23.69
2017-06-10T04:15:32.539Z,23.69
2017-06-10T04:16:32.884Z,23.69
2017-06-10T04:17:32.785Z,23.57
2017-06-10T04:18:32.951Z,23.66
2017-06-10T04:19:32.955Z,23.61
2017-06-10T04:20:32.995Z,23.68
2017-06-10T04:21:33.013Z,23.55
2017-06-10T04:22:33.300Z,23.66
2017-06-10T04:23:33.071Z,23.53
2017-06-10T04:24:33.099Z,23.66
2017-06-10T04:25:33.123Z,23.61
2017-06-10T04:26:33.165Z,23.63
2017-06-10T04:27:32.868Z,23.54
2017-06-10T04:28:32.894Z,23.55
2017-06-10T04:29:33.235Z,23.6
2017-06-10T04:30:33.263Z,23.53
2017-06-10T04:31:32.974Z,23.63
2017-06-10T04:32:33.005Z,23.63
2017-06-10T04:33:33.031Z,23.57
2017-06-10T04:34:33.373Z,23.66
2017-06-10T04:35:33.400Z,23.61
2017-06-10T04:36:33.421Z,23.55
2017-06-10T04:37:33.141Z,23.65
2017-06-10T04:38:33.169Z,23.63
2017-06-10T04:39:33.510Z,23.53
2017-06-10T04:40:33.536Z,23.63
2017-06-10T04:41:33.564Z,23.63
2017-06-10T04:42:33.585Z,23.55
2017-06-10T04:43:33.619Z,23.61
2017-06-10T04:44:33.339Z,23.68
2017-06-10T04:45:33.668Z,23.63
2017-06-10T04:46:33.388Z,23.68
2017-06-10T04:47:33.729Z,23.61
2017-06-10T04:48:33.762Z,23.65
2017-06-10T04:49:33.778Z,23.61
2017-06-10T04:50:33.804Z,23.68
2017-06-10T04:51:33.523Z,23.58
2017-06-10T04:52:33.242Z,23.65
2017-06-10T04:53:33.890Z,23.58
2017-06-10T04:54:33.603Z,23.6
2017-06-10T04:55:33.947Z,23.53
2017-06-10T04:56:33.968Z,23.65
2017-06-10T04:57:33.689Z,23.61
2017-06-10T04:58:33.714Z,23.63
2017-06-10T04:59:34.043Z,23.54
2017-06-10T05:00:34.088Z,23.55
2017-06-10T05:01:33.808Z,23.66
2017-06-10T05:02:33.825Z,23.6
2017-06-10T05:03:34.159Z,23.58
2017-06-10T05:04:33.877Z,23.63
2017-06-10T05:05:34.214Z,23.63
2017-06-10T05:06:33.936Z,23.63
2017-06-10T05:07:34.274Z,23.53
2017-06-10T05:08:33.990Z,23.6
2017-06-10T05:09:33.702Z,23.69
2017-06-10T05:10:34.046Z,23.58
2017-06-10T05:11:34.384Z,23.55
2017-06-10T05:12:34.404Z,23.69
2017-06-10T05:13:34.129Z,23.61
2017-06-10T05:14:34.456Z,23.55
2017-06-10T05:15:34.494Z,23.54
2017-06-10T05:16:34.520Z,23.55
2017-06-10T05:17:34.549Z,23.61
2017-06-10T05:18:34.769Z,23.55
2017-06-10T05:19:34.598Z,23.6
2017-06-10T05:20:34.319Z,23.57
2017-06-10T05:21:34.356Z,23.58
2017-06-10T05:22:34.373Z,23.55
2017-06-10T05:23:34.597Z,23.57
2017-06-10T05:24:34.735Z,23.55
2017-06-10T05:25:34.758Z,23.55
2017-06-10T05:26:34.856Z,23.55
2017-06-10T05:27:34.820Z,23.6
2017-06-10T05:28:34.693Z,23.6
2017-06-10T05:29:34.874Z,23.53
2017-06-10T05:30:34.882Z,23.65
2017-06-10T05:31:34.931Z,23.57
2017-06-10T05:32:34.960Z,23.61
2017-06-10T05:33:34.869Z,23.66
2017-06-10T05:34:34.698Z,23.61
2017-06-10T05:35:35.043Z,23.58
2017-06-10T05:36:35.066Z,23.7
2017-06-10T05:37:34.781Z,23.63
2017-06-10T05:38:35.005Z,23.61
2017-06-10T05:39:35.146Z,23.57
2017-06-10T05:40:34.866Z,23.55
2017-06-10T05:41:35.203Z,23.58
2017-06-10T05:42:35.231Z,23.7
2017-06-10T05:43:35.411Z,23.69
2017-06-10T05:44:35.286Z,23.65
2017-06-10T05:45:35.297Z,23.75
2017-06-10T05:46:35.339Z,23.75
2017-06-10T05:47:35.363Z,23.69
2017-06-10T05:48:35.220Z,23.73
2017-06-10T05:49:35.425Z,23.75
2017-06-10T05:50:35.474Z,23.76
2017-06-10T05:51:35.157Z,23.7
2017-06-10T05:52:35.491Z,23.75
2017-06-10T05:53:35.513Z,23.73
2017-06-10T05:54:34.930Z,23.73
2017-06-10T05:55:35.617Z,23.68
2017-06-10T05:56:35.298Z,23.7
2017-06-10T05:57:35.643Z,23.73
2017-06-10T05:58:35.869Z,23.78
2017-06-10T05:59:35.700Z,23.76
2017-06-10T06:00:35.443Z,23.75
2017-06-10T06:01:35.752Z,23.76
2017-06-10T06:02:35.783Z,23.83
2017-06-10T06:03:35.960Z,23.79
2017-06-10T06:04:35.834Z,23.83
2017-06-10T06:05:35.857Z,23.79
2017-06-10T06:06:35.603Z,23.87
2017-06-10T06:07:35.904Z,23.79
2017-06-10T06:08:35.778Z,23.9
2017-06-10T06:09:35.974Z,23.79
2017-06-10T06:10:35.990Z,23.79
2017-06-10T06:11:35.716Z,23.87
2017-06-10T06:12:35.752Z,23.84
2017-06-10T06:13:35.908Z,23.88
2017-06-10T06:14:36.103Z,23.88
2017-06-10T06:15:35.817Z,23.87
2017-06-10T06:16:35.851Z,23.85
2017-06-10T06:17:36.180Z,23.87
2017-06-10T06:18:36.361Z,23.91
2017-06-10T06:19:35.933Z,23.91
2017-06-10T06:20:36.266Z,23.83
2017-06-10T06:21:36.303Z,23.9
2017-06-10T06:22:36.324Z,23.87
2017-06-10T06:23:36.192Z,23.88
2017-06-10T06:24:36.068Z,23.88
2017-06-10T06:25:36.405Z,23.83
2017-06-10T06:26:36.438Z,23.85
2017-06-10T06:27:36.472Z,23.88
2017-06-10T06:28:36.636Z,23.87
2017-06-10T06:29:36.201Z,23.9
2017-06-10T06:30:36.542Z,23.83
2017-06-10T06:31:36.263Z,23.87
2017-06-10T06:32:36.633Z,23.87
2017-06-10T06:33:36.465Z,23.9
2017-06-10T06:34:36.344Z,23.85
2017-06-10T06:35:36.682Z,23.83
2017-06-10T06:36:36.718Z,23.91
2017-06-10T06:37:36.748Z,23.88
2017-06-10T06:38:36.917Z,23.94
2017-06-10T06:39:36.793Z,23.87
2017-06-10T06:40:36.502Z,23.91
2017-06-10T06:41:36.540Z,23.85
2017-06-10T06:42:36.876Z,23.87
2017-06-10T06:43:37.071Z,23.88
2017-06-10T06:44:36.624Z,23.88
2017-06-10T06:45:36.649Z,23.88
2017-06-10T06:46:36.991Z,23.9
2017-06-10T06:47:37.023Z,23.91
2017-06-10T06:48:37.188Z,23.9
2017-06-10T06:49:36.759Z,23.84
2017-06-10T06:50:36.472Z,23.94
2017-06-10T06:51:37.127Z,23.87
2017-06-10T06:52:37.172Z,23.83
2017-06-10T06:53:37.327Z,23.8
2017-06-10T06:54:36.891Z,23.95
2017-06-10T06:55:36.917Z,23.98
2017-06-10T06:56:37.254Z,23.91
2017-06-10T06:57:37.303Z,23.97
2017-06-10T06:58:37.320Z,23.94
2017-06-10T06:59:37.352Z,23.9
2017-06-10T07:00:37.413Z,23.94
2017-06-10T07:01:37.402Z,23.98
2017-06-10T07:02:37.431Z,23.91
2017-06-10T07:03:37.456Z,23.98
2017-06-10T07:04:36.864Z,23.91
2017-06-10T07:05:37.205Z,23.93
2017-06-10T07:06:37.226Z,24
2017-06-10T07:07:37.573Z,23.88
2017-06-10T07:08:37.594Z,23.93
2017-06-10T07:09:37.619Z,23.87
2017-06-10T07:10:37.341Z,23.94
2017-06-10T07:11:37.694Z,23.91
2017-06-10T07:12:37.389Z,23.88
2017-06-10T07:13:37.423Z,23.91
2017-06-10T07:14:37.752Z,23.93
2017-06-10T07:15:37.469Z,23.93
2017-06-10T07:16:37.813Z,23.94
2017-06-10T07:17:37.522Z,23.97
2017-06-10T07:18:37.867Z,23.98
2017-06-10T07:19:37.579Z,23.98
2017-06-10T07:20:37.957Z,23.97
2017-06-10T07:21:37.945Z,24
2017-06-10T07:22:38.011Z,24.02
2017-06-10T07:23:37.698Z,24.06
2017-06-10T07:24:38.040Z,24.02
2017-06-10T07:25:38.054Z,24.03
2017-06-10T07:26:38.093Z,24.03
2017-06-10T07:27:37.807Z,24.02
2017-06-10T07:28:38.146Z,24.05
2017-06-10T07:29:37.864Z,24.03
2017-06-10T07:30:38.201Z,24.06
2017-06-10T07:31:38.234Z,24
2017-06-10T07:32:37.943Z,23.97
2017-06-10T07:33:37.974Z,23.98
2017-06-10T07:34:38.003Z,24
2017-06-10T07:35:38.336Z,24
2017-06-10T07:36:38.364Z,23.97
2017-06-10T07:37:38.398Z,24.06
2017-06-10T07:38:38.424Z,24
2017-06-10T07:39:38.137Z,24.02
2017-06-10T07:40:38.476Z,23.97
2017-06-10T07:41:38.510Z,23.98
2017-06-10T07:42:38.222Z,24
2017-06-10T07:43:38.251Z,24.02
2017-06-10T07:44:38.431Z,24
2017-06-10T07:45:38.613Z,24
2017-06-10T07:46:38.339Z,24.02
2017-06-10T07:47:38.359Z,24.02
2017-06-10T07:48:38.703Z,23.98
2017-06-10T07:49:38.575Z,24.03
2017-06-10T07:50:38.752Z,23.95
2017-06-10T07:51:38.779Z,24
2017-06-10T07:52:38.498Z,23.98
2017-06-10T07:53:38.841Z,23.95
2017-06-10T07:54:38.708Z,23.98
2017-06-10T07:55:38.578Z,23.97
2017-06-10T07:56:38.925Z,24.03
2017-06-10T07:57:38.327Z,24
2017-06-10T07:58:38.971Z,23.97
2017-06-10T07:59:38.844Z,23.98
2017-06-10T08:00:39.032Z,23.95
2017-06-10T08:01:39.055Z,23.97
2017-06-10T08:02:39.086Z,23.97
2017-06-10T08:03:39.119Z,23.97
2017-06-10T08:04:39.120Z,24
2017-06-10T08:05:38.860Z,23.98
2017-06-10T08:06:39.202Z,24.02
2017-06-10T08:07:38.951Z,24
2017-06-10T08:08:39.283Z,24.03
2017-06-10T08:09:39.130Z,24
2017-06-10T08:10:39.309Z,24.06
2017-06-10T08:11:39.340Z,24.05
2017-06-10T08:12:39.366Z,23.98
2017-06-10T08:13:39.390Z,23.98
2017-06-10T08:14:39.572Z,24.03
2017-06-10T08:15:39.136Z,24
2017-06-10T08:16:39.477Z,23.98
2017-06-10T08:17:39.510Z,24.06
2017-06-10T08:18:39.530Z,24.06
2017-06-10T08:19:39.395Z,24.1
2017-06-10T08:20:39.271Z,24.08
2017-06-10T08:21:39.613Z,24.02
2017-06-10T08:22:39.330Z,24.02
2017-06-10T08:23:39.359Z,24.08
2017-06-10T08:24:39.851Z,24.06
2017-06-10T08:25:39.724Z,24.05
2017-06-10T08:26:39.754Z,24.05
2017-06-10T08:27:39.473Z,24.05
2017-06-10T08:28:39.815Z,24
2017-06-10T08:29:39.991Z,24.08
2017-06-10T08:30:39.547Z,23.97
2017-06-10T08:31:39.569Z,24.08
2017-06-10T08:32:39.608Z,24.12
2017-06-10T08:33:39.950Z,24.05
2017-06-10T08:34:39.862Z,24.06
2017-06-10T08:35:40.000Z,24.05
2017-06-10T08:36:40.041Z,24.08
2017-06-10T08:37:40.062Z,24.09
2017-06-10T08:38:39.770Z,24.13
2017-06-10T08:39:40.372Z,24.18
2017-06-10T08:40:40.141Z,24.18
2017-06-10T08:41:39.861Z,24.13
2017-06-10T08:42:40.202Z,24.22
2017-06-10T08:43:40.231Z,24.13
2017-06-10T08:44:40.456Z,24.13
2017-06-10T08:45:39.961Z,24.18
2017-06-10T08:46:40.313Z,24.21
2017-06-10T08:47:40.339Z,24.2
2017-06-10T08:48:39.738Z,24.15
2017-06-10T08:49:40.552Z,24.22
2017-06-10T08:50:40.416Z,24.21
2017-06-10T08:51:40.133Z,24.18
2017-06-10T08:52:40.474Z,24.21
2017-06-10T08:53:40.187Z,24.28
2017-06-10T08:54:40.729Z,24.32
2017-06-10T08:55:40.558Z,24.31
2017-06-10T08:56:40.589Z,24.28
2017-06-10T08:57:40.618Z,24.28
2017-06-10T08:58:40.638Z,24.25
2017-06-10T08:59:40.555Z,24.31
2017-06-10T09:00:40.688Z,24.3
2017-06-10T09:01:40.728Z,24.25
2017-06-10T09:02:40.753Z,24.28
2017-06-10T09:03:40.783Z,24.32
2017-06-10T09:04:41.011Z,24.37
2017-06-10T09:05:40.528Z,24.43
2017-06-10T09:06:40.553Z,24.37
2017-06-10T09:07:40.889Z,24.4
2017-06-10T09:08:40.922Z,24.35
2017-06-10T09:09:40.321Z,24.35
2017-06-10T09:10:40.665Z,24.4
2017-06-10T09:11:41.001Z,24.39
2017-06-10T09:12:41.033Z,24.37
2017-06-10T09:13:41.063Z,24.43
2017-06-10T09:14:41.087Z,24.49
2017-06-10T09:15:40.804Z,24.45
2017-06-10T09:16:41.136Z,24.45
2017-06-10T09:17:41.172Z,24.53
2017-06-10T09:18:41.201Z,24.45
2017-06-10T09:19:41.227Z,24.46
2017-06-10T09:20:41.260Z,24.57
2017-06-10T09:21:40.963Z,24.52
2017-06-10T09:22:41.310Z,24.52
2017-06-10T09:23:41.342Z,24.55
2017-06-10T09:24:41.052Z,24.49
2017-06-10T09:25:41.403Z,24.52
2017-06-10T09:26:41.112Z,24.5
2017-06-10T09:27:41.141Z,24.46
2017-06-10T09:28:41.157Z,24.57
2017-06-10T09:29:41.505Z,24.46
2017-06-10T09:30:41.232Z,24.57
2017-06-10T09:31:41.251Z,24.62
2017-06-10T09:32:41.284Z,24.47
2017-06-10T09:33:41.622Z,24.52
2017-06-10T09:34:41.338Z,24.55
2017-06-10T09:35:41.362Z,24.61
2017-06-10T09:36:41.707Z,24.55
2017-06-10T09:37:41.427Z,24.53
2017-06-10T09:38:41.448Z,24.68
2017-06-10T09:39:41.791Z,24.65
2017-06-10T09:40:41.819Z,24.62
2017-06-10T09:41:41.847Z,24.58
2017-06-10T09:42:41.876Z,24.64
2017-06-10T09:43:41.910Z,24.65
2017-06-10T09:44:41.926Z,24.58
2017-06-10T09:45:41.331Z,24.65
2017-06-10T09:46:41.980Z,24.73
2017-06-10T09:47:41.391Z,24.67
2017-06-10T09:48:41.424Z,24.69
2017-06-10T09:49:41.762Z,24.65
2017-06-10T09:50:42.107Z,24.77
2017-06-10T09:51:41.507Z,24.64
2017-06-10T09:52:41.851Z,24.77
2017-06-10T09:53:42.176Z,24.81
2017-06-10T09:54:41.895Z,24.78
2017-06-10T09:55:42.271Z,24.78
2017-06-10T09:56:41.968Z,24.8
2017-06-10T09:57:42.296Z,24.9
2017-06-10T09:58:41.706Z,24.9
2017-06-10T09:59:42.357Z,24.83
2017-06-10T10:00:41.754Z,24.9
2017-06-10T10:01:42.411Z,24.93
2017-06-10T10:02:42.153Z,24.88
2017-06-10T10:03:41.839Z,24.9
2017-06-10T10:04:42.182Z,24.95
2017-06-10T10:05:42.523Z,24.91
2017-06-10T10:06:42.248Z,24.95
2017-06-10T10:07:41.959Z,24.99
2017-06-10T10:08:42.296Z,24.93
2017-06-10T10:09:42.320Z,24.96
2017-06-10T10:10:42.666Z,25
2017-06-10T10:11:42.699Z,24.99
2017-06-10T10:12:42.409Z,25
2017-06-10T10:13:42.753Z,24.99
2017-06-10T10:14:42.470Z,25
2017-06-10T10:15:42.499Z,25.06
2017-06-10T10:16:42.522Z,25.09
2017-06-10T10:17:42.553Z,25
2017-06-10T10:18:42.885Z,25.17
2017-06-10T10:19:42.918Z,25.1
2017-06-10T10:20:42.950Z,25.14
2017-06-10T10:21:42.663Z,25.13
2017-06-10T10:22:43.012Z,25.15
2017-06-10T10:23:43.054Z,25.13
2017-06-10T10:24:42.757Z,25.2
2017-06-10T10:25:42.939Z,25.13
2017-06-10T10:26:42.803Z,25.2
2017-06-10T10:27:43.155Z,25.15
2017-06-10T10:28:43.181Z,25.2
2017-06-10T10:29:43.205Z,25.13
2017-06-10T10:30:43.394Z,25.17
2017-06-10T10:31:43.262Z,25.15
2017-06-10T10:32:42.975Z,25.09
2017-06-10T10:33:43.000Z,25.2
2017-06-10T10:34:43.352Z,25.13
2017-06-10T10:35:43.573Z,25.15
2017-06-10T10:36:43.099Z,25.24
2017-06-10T10:37:43.431Z,25.13
2017-06-10T10:38:43.464Z,25.21
2017-06-10T10:39:43.177Z,25.23
2017-06-10T10:40:43.716Z,25.18
2017-06-10T10:41:43.545Z,25.24
2017-06-10T10:42:43.263Z,25.25
2017-06-10T10:43:43.607Z,25.1
2017-06-10T10:44:43.632Z,25.23
2017-06-10T10:45:43.863Z,25.1
2017-06-10T10:46:43.685Z,25.17
2017-06-10T10:47:43.407Z,25.1
2017-06-10T10:48:43.747Z,25.2
2017-06-10T10:49:43.777Z,25.25
2017-06-10T10:50:43.741Z,25.27
2017-06-10T10:51:43.834Z,25.2
2017-06-10T10:52:43.547Z,25.2
2017-06-10T10:53:43.581Z,25.21
2017-06-10T10:54:43.913Z,25.23
2017-06-10T10:55:44.146Z,25.23
2017-06-10T10:56:43.978Z,25.21
2017-06-10T10:57:44.001Z,25.24
2017-06-10T10:58:43.716Z,25.33
2017-06-10T10:59:44.066Z,25.32
2017-06-10T11:00:43.918Z,25.39
2017-06-10T11:01:43.806Z,25.33
2017-06-10T11:02:44.147Z,25.38
2017-06-10T11:03:44.177Z,25.42
2017-06-10T11:04:44.205Z,25.4
2017-06-10T11:05:44.377Z,25.4
2017-06-10T11:06:44.254Z,25.42
2017-06-10T11:07:44.295Z,25.38
2017-06-10T11:08:44.312Z,25.38
2017-06-10T11:09:44.348Z,25.36
2017-06-10T11:10:44.533Z,25.46
2017-06-10T11:11:44.393Z,25.45
2017-06-10T11:12:44.123Z,25.43
2017-06-10T11:13:44.143Z,25.46
2017-06-10T11:14:44.192Z,25.5
2017-06-10T11:15:44.358Z,25.47
2017-06-10T11:16:44.550Z,25.43
2017-06-10T11:17:44.580Z,25.5
2017-06-10T11:18:43.984Z,25.52
2017-06-10T11:19:44.632Z,25.46
2017-06-10T11:20:44.863Z,25.47
2017-06-10T11:21:44.689Z,25.5
2017-06-10T11:22:44.407Z,25.55
2017-06-10T11:23:44.751Z,25.5
2017-06-10T11:24:44.772Z,25.54
2017-06-10T11:25:44.957Z,25.58
2017-06-10T11:26:44.526Z,25.54
2017-06-10T11:27:44.863Z,25.58
2017-06-10T11:28:44.582Z,25.54
2017-06-10T11:29:44.924Z,25.6
2017-06-10T11:30:44.807Z,25.6
2017-06-10T11:31:44.674Z,25.72
2017-06-10T11:32:44.702Z,25.72
2017-06-10T11:33:45.035Z,25.76
2017-06-10T11:34:44.443Z,25.8
2017-06-10T11:35:44.932Z,25.85
2017-06-10T11:36:45.126Z,25.91
2017-06-10T11:37:45.147Z,26.06
2017-06-10T11:38:45.184Z,26.09
2017-06-10T11:39:44.901Z,26.26
2017-06-10T11:40:45.401Z,26.43
2017-06-10T11:41:44.682Z,26.58
2017-06-10T11:42:44.982Z,26.69
2017-06-10T11:43:45.019Z,26.91
2017-06-10T11:44:45.360Z,27.04
2017-06-10T11:45:45.643Z,27.18
2017-06-10T11:46:45.425Z,27.36
2017-06-10T11:47:45.142Z,27.46
2017-06-10T11:48:45.167Z,27.65
2017-06-10T11:49:45.235Z,27.79
2017-06-10T11:50:45.704Z,27.9
2017-06-10T11:51:45.266Z,28.04
2017-06-10T11:52:45.610Z,28.22
2017-06-10T11:53:45.333Z,28.29
2017-06-10T11:54:45.683Z,28.51
2017-06-10T11:55:45.960Z,28.56
2017-06-10T11:56:45.112Z,28.61
2017-06-10T11:57:45.765Z,28.8
2017-06-10T11:58:45.806Z,28.93
2017-06-10T11:59:45.832Z,29.06
2017-06-10T12:00:45.396Z,29.18
2017-06-10T12:01:45.886Z,29.16
2017-06-10T12:02:45.617Z,29.33
2017-06-10T12:03:45.960Z,29.41
2017-06-10T12:04:45.995Z,29.49
2017-06-10T12:05:46.177Z,29.65
2017-06-10T12:06:45.750Z,29.71
2017-06-10T12:07:45.786Z,29.82
2017-06-10T12:08:46.136Z,29.9
2017-06-10T12:09:45.851Z,30
2017-06-10T12:10:46.388Z,30.13
2017-06-10T12:11:45.917Z,30.17
2017-06-10T12:12:46.258Z,30.29
2017-06-10T12:13:45.983Z,30.39
2017-06-10T12:14:46.331Z,30.47
2017-06-10T12:15:46.511Z,30.46
2017-06-10T12:16:46.383Z,30.51
2017-06-10T12:17:46.425Z,30.64
2017-06-10T12:18:46.143Z,30.57
2017-06-10T12:19:46.181Z,30.53
2017-06-10T12:20:46.475Z,30.54
2017-06-10T12:21:46.244Z,30.54
2017-06-10T12:22:46.282Z,30.54
2017-06-10T12:23:46.634Z,30.58
2017-06-10T12:24:46.660Z,30.57
2017-06-10T12:25:46.841Z,30.6
2017-06-10T12:26:46.726Z,30.67
2017-06-10T12:27:46.761Z,30.69
2017-06-10T12:28:46.486Z,30.76
2017-06-10T12:29:46.830Z,30.91
2017-06-10T12:30:46.701Z,30.88
2017-06-10T12:31:46.272Z,30.95
2017-06-10T12:32:46.669Z,30.95
2017-06-10T12:33:46.654Z,31.06
2017-06-10T12:34:46.382Z,31.14
2017-06-10T12:35:47.284Z,31.2
2017-06-10T12:36:47.058Z,31.25
2017-06-10T12:37:46.786Z,31.36
2017-06-10T12:38:47.131Z,31.41
2017-06-10T12:39:46.850Z,31.48
2017-06-10T12:40:47.042Z,31.53
2017-06-10T12:41:47.237Z,31.5
2017-06-10T12:42:47.266Z,31.63
2017-06-10T12:43:46.998Z,31.62
2017-06-10T12:44:47.340Z,31.69
2017-06-10T12:45:47.315Z,31.69
2017-06-10T12:46:47.409Z,31.73
2017-06-10T12:47:47.129Z,31.8
2017-06-10T12:48:46.859Z,31.81
2017-06-10T12:49:47.515Z,31.95
2017-06-10T12:50:47.745Z,32
2017-06-10T12:51:47.576Z,31.99
2017-06-10T12:52:47.618Z,31.99
2017-06-10T12:53:47.642Z,32.01
2017-06-10T12:54:47.692Z,32.03
2017-06-10T12:55:47.865Z,32.06
2017-06-10T12:56:47.749Z,32.08
2017-06-10T12:57:47.166Z,32.15
2017-06-10T12:58:47.823Z,32.06